Last 24 Hour KALB Observations

Last 24 hours of surface weather observations from the Albany County Airport. Observations taken by the National Weather Service.


		
KALB 241951Z 32005KT 10SM SCT060 SCT250 29/16 A2997 RMK AO2 SLP146 T02940156=
KALB 242051Z 01004KT 10SM BKN065 BKN250 28/16 A2997 RMK AO2 SLP148 T02830156
 55005=
KALB 242151Z 02003KT 10SM SCT075 SCT250 28/16 A2998 RMK AO2 SLP149 T02830161=
KALB 242151Z COR 02003KT 10SM SCT060 SCT075 SCT250 28/16 A2998 RMK AO2 SLP149
 T02830161=
KALB 242251Z 28009KT 10SM FEW060 FEW250 29/16 A2998 RMK AO2 SLP149 T02940156=
KALB 242351Z 28008KT 10SM FEW065 FEW200 SCT250 27/14 A2999 RMK AO2 SLP155
 T02720139 10300 20272 53007=
KALB 250051Z 26008KT 10SM FEW060 FEW120 FEW250 25/14 A3000 RMK AO2 SLP159
 T02500139=
KALB 250151Z 28006KT 10SM FEW055 FEW120 FEW250 24/13 A3002 RMK AO2 SLP165
 T02440133=
KALB 250251Z 31004KT 10SM FEW055 23/13 A3004 RMK AO2 SLP170 T02330128 53015=
KALB 250351Z 32006KT 10SM CLR 22/13 A3005 RMK AO2 SLP173 T02170128=
KALB 250451Z 00000KT 10SM CLR 21/13 A3005 RMK AO2 SLP173 T02060128 403000161=
KALB 250551Z 00000KT 10SM FEW250 19/13 A3005 RMK AO2 SLP174 T01890133 10272
 20189 51004=
KALB 250651Z 00000KT 10SM FEW250 17/13 A3006 RMK AO2 SLP177 T01720133=
KALB 250751Z 00000KT 10SM CLR 16/13 A3007 RMK AO2 SLP182 T01610133=
KALB 250851Z 00000KT 10SM FEW250 14/12 A3009 RMK AO2 SLP189 T01440122 53015=
KALB 250951Z 00000KT 10SM FEW250 14/12 A3012 RMK AO2 SLP197 T01440122=
KALB 251051Z 00000KT 10SM FEW250 19/14 A3013 RMK AO2 SLP201 T01890144=
KALB 251151Z 01004KT 10SM FEW250 22/13 A3013 RMK AO2 SLP203 T02170128 10217
 20144 51014=
KALB 251251Z 00000KT 10SM FEW250 23/13 A3014 RMK AO2 SLP204 T02280133=
KALB 251351Z 00000KT 10SM FEW045 FEW250 26/14 A3014 RMK AO2 SLP204 T02560144=
KALB 251451Z 12004KT 10SM FEW048 FEW250 27/15 A3013 RMK AO2 SLP202 T02670150
 58001=
KALB 251551Z 33004KT 10SM FEW050 FEW250 28/14 A3013 RMK AO2 SLP201 T02830144=
KALB 251651Z VRB05KT 10SM FEW060 30/13 A3012 RMK AO2 SLP199 FU PLUME NW
 T03000133=
KALB 251751Z 17004KT 10SM FEW010 FEW065 FEW250 31/13 A3010 RMK AO2 SLP193 FU
 FEW010 FU PLUME NW T03060128 10311 20211 58009=
KALB 251851Z 00000KT 10SM FEW010 FEW070 SCT250 32/12 A3009 RMK AO2 SLP188 FU
 FEW010 FU PLUME NW T03220122=
KALB 251951Z 36007KT 10SM FEW010 FEW070 FEW250 32/11 A3009 RMK AO2 SLP187 FU
 FEW010 FU PLUME W T03220111=